sensor_id;sensor_type;location;lat;lon;timestamp;pressure;altitude;pressure_sealevel;temperature;humidity
18749;BME280;9503;53.560;10.246;2024-02-21T00:02:18;101146.53;;;13.37;81.61
18749;BME280;9503;53.560;10.246;2024-02-21T00:04:45;101140.13;;;13.28;81.15
18749;BME280;9503;53.560;10.246;2024-02-21T00:07:12;101132.88;;;13.00;81.57
18749;BME280;9503;53.560;10.246;2024-02-21T00:09:38;101136.56;;;13.25;82.67
18749;BME280;9503;53.560;10.246;2024-02-21T00:12:07;101134.22;;;13.12;82.60
18749;BME280;9503;53.560;10.246;2024-02-21T00:14:34;101137.00;;;13.16;83.70
18749;BME280;9503;53.560;10.246;2024-02-21T00:17:00;101124.66;;;13.09;83.18
18749;BME280;9503;53.560;10.246;2024-02-21T00:19:27;101128.00;;;13.45;82.41
18749;BME280;9503;53.560;10.246;2024-02-21T00:21:53;101121.22;;;14.10;79.50
18749;BME280;9503;53.560;10.246;2024-02-21T00:24:20;101130.03;;;13.52;82.86
18749;BME280;9503;53.560;10.246;2024-02-21T00:26:47;101120.06;;;13.02;84.10
18749;BME280;9503;53.560;10.246;2024-02-21T00:29:14;101118.81;;;13.13;84.75
18749;BME280;9503;53.560;10.246;2024-02-21T00:31:41;101104.94;;;12.71;86.49
18749;BME280;9503;53.560;10.246;2024-02-21T00:34:10;101095.00;;;12.24;87.93
18749;BME280;9503;53.560;10.246;2024-02-21T00:36:38;101096.84;;;13.20;84.42
18749;BME280;9503;53.560;10.246;2024-02-21T00:39:04;101095.41;;;12.88;85.77
18749;BME280;9503;53.560;10.246;2024-02-21T00:41:31;101089.44;;;13.27;84.67
18749;BME280;9503;53.560;10.246;2024-02-21T00:43:58;101090.66;;;13.16;84.77
18749;BME280;9503;53.560;10.246;2024-02-21T00:46:26;101076.66;;;12.71;86.01
18749;BME280;9503;53.560;10.246;2024-02-21T00:48:52;101074.44;;;12.41;86.47
18749;BME280;9503;53.560;10.246;2024-02-21T00:51:19;101073.09;;;12.50;87.46
18749;BME280;9503;53.560;10.246;2024-02-21T00:53:46;101078.03;;;12.84;85.78
18749;BME280;9503;53.560;10.246;2024-02-21T00:56:12;101071.41;;;13.27;85.17
18749;BME280;9503;53.560;10.246;2024-02-21T00:58:39;101067.53;;;13.58;84.19
18749;BME280;9503;53.560;10.246;2024-02-21T01:01:05;101067.06;;;13.07;84.75
18749;BME280;9503;53.560;10.246;2024-02-21T01:03:33;101070.94;;;12.59;85.67
18749;BME280;9503;53.560;10.246;2024-02-21T01:06:00;101074.88;;;12.89;85.01
18749;BME280;9503;53.560;10.246;2024-02-21T01:08:26;101054.66;;;13.18;86.15
18749;BME280;9503;53.560;10.246;2024-02-21T01:10:53;101058.75;;;12.74;85.82
18749;BME280;9503;53.560;10.246;2024-02-21T01:13:20;101050.72;;;12.29;88.67
18749;BME280;9503;53.560;10.246;2024-02-21T01:15:46;101054.22;;;12.88;88.35
18749;BME280;9503;53.560;10.246;2024-02-21T01:18:13;101053.28;;;12.66;89.17
18749;BME280;9503;53.560;10.246;2024-02-21T01:20:41;101051.16;;;12.96;85.98
18749;BME280;9503;53.560;10.246;2024-02-21T01:23:08;101048.59;;;12.77;87.03
18749;BME280;9503;53.560;10.246;2024-02-21T01:25:34;101044.25;;;13.15;86.07
18749;BME280;9503;53.560;10.246;2024-02-21T01:28:01;101038.19;;;13.14;86.32
18749;BME280;9503;53.560;10.246;2024-02-21T01:30:27;101024.41;;;12.54;86.55
18749;BME280;9503;53.560;10.246;2024-02-21T01:32:54;101034.50;;;12.69;89.28
18749;BME280;9503;53.560;10.246;2024-02-21T01:35:20;101023.72;;;12.39;89.66
18749;BME280;9503;53.560;10.246;2024-02-21T01:37:48;101014.88;;;12.52;88.43
18749;BME280;9503;53.560;10.246;2024-02-21T01:40:17;101013.88;;;12.87;87.16
18749;BME280;9503;53.560;10.246;2024-02-21T01:42:43;101011.13;;;13.22;87.63
18749;BME280;9503;53.560;10.246;2024-02-21T01:45:10;101018.97;;;13.06;88.01
18749;BME280;9503;53.560;10.246;2024-02-21T01:47:37;101008.78;;;13.28;87.04
18749;BME280;9503;53.560;10.246;2024-02-21T01:50:04;101007.75;;;13.23;86.30
18749;BME280;9503;53.560;10.246;2024-02-21T01:52:31;100988.50;;;13.57;85.17
18749;BME280;9503;53.560;10.246;2024-02-21T01:55:01;100995.34;;;13.36;85.49
18749;BME280;9503;53.560;10.246;2024-02-21T01:57:28;100985.72;;;12.51;90.47
18749;BME280;9503;53.560;10.246;2024-02-21T01:59:55;100986.94;;;12.59;90.41
18749;BME280;9503;53.560;10.246;2024-02-21T02:02:22;100986.47;;;12.49;90.69
18749;BME280;9503;53.560;10.246;2024-02-21T02:04:49;100984.97;;;12.34;92.68
18749;BME280;9503;53.560;10.246;2024-02-21T02:07:15;100974.47;;;11.93;94.46
18749;BME280;9503;53.560;10.246;2024-02-21T02:09:42;100967.91;;;12.36;94.74
18749;BME280;9503;53.560;10.246;2024-02-21T02:12:10;100955.47;;;12.65;92.24
18749;BME280;9503;53.560;10.246;2024-02-21T02:14:37;100961.53;;;13.07;91.38
18749;BME280;9503;53.560;10.246;2024-02-21T02:17:04;100950.91;;;12.59;93.03
18749;BME280;9503;53.560;10.246;2024-02-21T02:19:31;100929.41;;;12.38;94.14
18749;BME280;9503;53.560;10.246;2024-02-21T02:22:00;100927.34;;;12.69;93.05
18749;BME280;9503;53.560;10.246;2024-02-21T02:24:33;100930.50;;;12.43;93.17
18749;BME280;9503;53.560;10.246;2024-02-21T02:27:00;100922.78;;;12.83;93.98
18749;BME280;9503;53.560;10.246;2024-02-21T02:29:27;100891.28;;;12.89;93.25
18749;BME280;9503;53.560;10.246;2024-02-21T02:31:53;100891.16;;;12.45;92.02
18749;BME280;9503;53.560;10.246;2024-02-21T02:34:20;100871.25;;;12.61;92.37
18749;BME280;9503;53.560;10.246;2024-02-21T02:36:46;100855.44;;;12.52;93.96
18749;BME280;9503;53.560;10.246;2024-02-21T02:39:14;100853.47;;;12.46;92.98
18749;BME280;9503;53.560;10.246;2024-02-21T02:41:42;100833.53;;;12.82;92.24
18749;BME280;9503;53.560;10.246;2024-02-21T02:44:09;100815.63;;;13.06;90.23
18749;BME280;9503;53.560;10.246;2024-02-21T02:46:35;100810.00;;;12.94;89.83
18749;BME280;9503;53.560;10.246;2024-02-21T02:49:02;100811.94;;;12.99;90.19
18749;BME280;9503;53.560;10.246;2024-02-21T02:51:28;100814.47;;;12.16;95.24
18749;BME280;9503;53.560;10.246;2024-02-21T02:53:55;100810.59;;;12.05;94.13
18749;BME280;9503;53.560;10.246;2024-02-21T02:56:22;100818.03;;;12.39;91.68
18749;BME280;9503;53.560;10.246;2024-02-21T02:58:50;100848.38;;;12.27;93.11
18749;BME280;9503;53.560;10.246;2024-02-21T03:01:17;100874.56;;;13.42;89.45
18749;BME280;9503;53.560;10.246;2024-02-21T03:03:43;100881.47;;;13.65;85.70
18749;BME280;9503;53.560;10.246;2024-02-21T03:06:10;100865.84;;;13.83;85.49
18749;BME280;9503;53.560;10.246;2024-02-21T03:08:37;100871.22;;;13.89;85.34
18749;BME280;9503;53.560;10.246;2024-02-21T03:11:05;100878.28;;;13.27;86.90
18749;BME280;9503;53.560;10.246;2024-02-21T03:13:32;100864.88;;;12.72;88.40
18749;BME280;9503;53.560;10.246;2024-02-21T03:15:59;100863.84;;;13.10;88.44
18749;BME280;9503;53.560;10.246;2024-02-21T03:18:26;100865.84;;;12.55;90.90
18749;BME280;9503;53.560;10.246;2024-02-21T03:20:53;100873.25;;;12.68;91.04
18749;BME280;9503;53.560;10.246;2024-02-21T03:23:19;100874.72;;;12.82;88.87
18749;BME280;9503;53.560;10.246;2024-02-21T03:25:46;100877.53;;;12.67;89.56
18749;BME280;9503;53.560;10.246;2024-02-21T03:28:13;100881.66;;;12.85;88.99
18749;BME280;9503;53.560;10.246;2024-02-21T03:30:39;100875.22;;;12.73;89.81
18749;BME280;9503;53.560;10.246;2024-02-21T03:33:07;100875.03;;;12.90;88.50
18749;BME280;9503;53.560;10.246;2024-02-21T03:35:34;100874.91;;;13.08;87.56
18749;BME280;9503;53.560;10.246;2024-02-21T03:38:00;100874.19;;;13.12;87.02
18749;BME280;9503;53.560;10.246;2024-02-21T03:40:27;100888.66;;;13.29;85.80
18749;BME280;9503;53.560;10.246;2024-02-21T03:42:53;100876.94;;;12.54;88.86
18749;BME280;9503;53.560;10.246;2024-02-21T03:45:20;100882.38;;;12.81;87.78
18749;BME280;9503;53.560;10.246;2024-02-21T03:47:49;100891.06;;;12.42;88.21
18749;BME280;9503;53.560;10.246;2024-02-21T03:50:17;100884.41;;;13.52;85.92
18749;BME280;9503;53.560;10.246;2024-02-21T03:52:44;100872.75;;;13.18;85.08
18749;BME280;9503;53.560;10.246;2024-02-21T03:55:11;100878.91;;;12.59;88.47
18749;BME280;9503;53.560;10.246;2024-02-21T03:57:37;100878.97;;;13.44;86.35
18749;BME280;9503;53.560;10.246;2024-02-21T04:00:05;100882.53;;;13.70;84.26
18749;BME280;9503;53.560;10.246;2024-02-21T04:02:36;100872.22;;;13.25;86.93
18749;BME280;9503;53.560;10.246;2024-02-21T04:05:03;100875.47;;;13.21;86.10
18749;BME280;9503;53.560;10.246;2024-02-21T04:07:31;100860.94;;;12.61;87.36
18749;BME280;9503;53.560;10.246;2024-02-21T04:09:57;100871.56;;;13.10;89.01
18749;BME280;9503;53.560;10.246;2024-02-21T04:12:24;100867.56;;;13.38;87.07
18749;BME280;9503;53.560;10.246;2024-02-21T04:14:51;100858.66;;;12.67;90.31
18749;BME280;9503;53.560;10.246;2024-02-21T04:17:17;100855.38;;;12.92;89.44
18749;BME280;9503;53.560;10.246;2024-02-21T04:19:44;100850.47;;;12.77;91.58
18749;BME280;9503;53.560;10.246;2024-02-21T04:22:10;100860.59;;;12.93;89.72
18749;BME280;9503;53.560;10.246;2024-02-21T04:24:38;100842.13;;;12.62;89.55
18749;BME280;9503;53.560;10.246;2024-02-21T04:27:05;100841.47;;;12.87;89.70
18749;BME280;9503;53.560;10.246;2024-02-21T04:29:31;100834.25;;;12.57;92.24
18749;BME280;9503;53.560;10.246;2024-02-21T04:31:58;100834.34;;;13.02;91.69
18749;BME280;9503;53.560;10.246;2024-02-21T04:34:25;100823.41;;;12.85;91.29
18749;BME280;9503;53.560;10.246;2024-02-21T04:36:51;100826.22;;;12.50;92.35
18749;BME280;9503;53.560;10.246;2024-02-21T04:39:18;100816.16;;;12.35;94.15
18749;BME280;9503;53.560;10.246;2024-02-21T04:41:46;100819.13;;;12.25;92.25
18749;BME280;9503;53.560;10.246;2024-02-21T04:44:13;100820.81;;;12.43;92.98
18749;BME280;9503;53.560;10.246;2024-02-21T04:46:42;100820.22;;;12.10;92.97
18749;BME280;9503;53.560;10.246;2024-02-21T04:49:08;100826.84;;;12.65;93.55
18749;BME280;9503;53.560;10.246;2024-02-21T04:51:35;100817.53;;;12.68;91.14
18749;BME280;9503;53.560;10.246;2024-02-21T04:54:01;100824.16;;;13.26;90.99
18749;BME280;9503;53.560;10.246;2024-02-21T04:56:29;100814.44;;;12.98;89.17
18749;BME280;9503;53.560;10.246;2024-02-21T04:58:57;100823.69;;;12.51;91.39
18749;BME280;9503;53.560;10.246;2024-02-21T05:01:23;100819.50;;;12.53;92.94
18749;BME280;9503;53.560;10.246;2024-02-21T05:03:50;100815.84;;;12.90;91.67
18749;BME280;9503;53.560;10.246;2024-02-21T05:06:16;100812.75;;;12.98;88.84
18749;BME280;9503;53.560;10.246;2024-02-21T05:08:44;100818.94;;;12.81;92.12
18749;BME280;9503;53.560;10.246;2024-02-21T05:11:10;100818.41;;;12.90;92.14
18749;BME280;9503;53.560;10.246;2024-02-21T05:13:37;100816.81;;;12.71;92.73
18749;BME280;9503;53.560;10.246;2024-02-21T05:16:06;100807.94;;;12.03;95.07
18749;BME280;9503;53.560;10.246;2024-02-21T05:18:32;100817.47;;;12.46;95.70
18749;BME280;9503;53.560;10.246;2024-02-21T05:20:59;100818.78;;;13.20;93.22
18749;BME280;9503;53.560;10.246;2024-02-21T05:23:26;100820.03;;;13.30;90.75
18749;BME280;9503;53.560;10.246;2024-02-21T05:25:52;100819.03;;;13.05;91.18
18749;BME280;9503;53.560;10.246;2024-02-21T05:28:19;100814.97;;;12.68;91.48
18749;BME280;9503;53.560;10.246;2024-02-21T05:30:45;100809.69;;;12.44;93.44
18749;BME280;9503;53.560;10.246;2024-02-21T05:33:13;100807.03;;;13.06;93.45
18749;BME280;9503;53.560;10.246;2024-02-21T05:35:46;100811.31;;;12.84;92.46
18749;BME280;9503;53.560;10.246;2024-02-21T05:38:13;100816.25;;;13.21;92.05
18749;BME280;9503;53.560;10.246;2024-02-21T05:40:39;100802.66;;;12.40;93.19
18749;BME280;9503;53.560;10.246;2024-02-21T05:43:07;100804.06;;;12.53;95.52
18749;BME280;9503;53.560;10.246;2024-02-21T05:45:34;100802.09;;;12.68;94.00
18749;BME280;9503;53.560;10.246;2024-02-21T05:48:00;100798.34;;;12.81;91.36
18749;BME280;9503;53.560;10.246;2024-02-21T05:50:29;100796.13;;;12.69;94.91
18749;BME280;9503;53.560;10.246;2024-02-21T05:52:56;100793.91;;;12.56;94.84
18749;BME280;9503;53.560;10.246;2024-02-21T05:55:22;100793.59;;;12.49;94.62
18749;BME280;9503;53.560;10.246;2024-02-21T05:57:49;100792.06;;;12.12;97.05
18749;BME280;9503;53.560;10.246;2024-02-21T06:00:16;100805.13;;;12.79;94.62
18749;BME280;9503;53.560;10.246;2024-02-21T06:02:43;100802.91;;;12.88;92.06
18749;BME280;9503;53.560;10.246;2024-02-21T06:05:09;100800.94;;;13.04;91.99
18749;BME280;9503;53.560;10.246;2024-02-21T06:07:38;100801.47;;;12.74;93.09
18749;BME280;9503;53.560;10.246;2024-02-21T06:10:06;100807.56;;;12.76;93.94
18749;BME280;9503;53.560;10.246;2024-02-21T06:12:32;100807.06;;;13.07;92.70
18749;BME280;9503;53.560;10.246;2024-02-21T06:14:59;100809.09;;;12.71;93.25
18749;BME280;9503;53.560;10.246;2024-02-21T06:17:26;100824.50;;;12.50;95.51
18749;BME280;9503;53.560;10.246;2024-02-21T06:19:52;100830.91;;;12.60;92.94
18749;BME280;9503;53.560;10.246;2024-02-21T06:22:19;100824.56;;;12.93;91.83
18749;BME280;9503;53.560;10.246;2024-02-21T06:24:47;100823.91;;;12.99;90.37
18749;BME280;9503;53.560;10.246;2024-02-21T06:27:13;100822.53;;;12.64;91.34
18749;BME280;9503;53.560;10.246;2024-02-21T06:29:41;100827.84;;;12.89;92.47
18749;BME280;9503;53.560;10.246;2024-02-21T06:32:08;100829.34;;;12.63;93.20
18749;BME280;9503;53.560;10.246;2024-02-21T06:34:35;100823.41;;;13.28;92.42
18749;BME280;9503;53.560;10.246;2024-02-21T06:37:01;100820.41;;;13.63;90.95
18749;BME280;9503;53.560;10.246;2024-02-21T06:39:28;100821.44;;;13.00;92.07
18749;BME280;9503;53.560;10.246;2024-02-21T06:41:56;100820.97;;;13.32;91.36
18749;BME280;9503;53.560;10.246;2024-02-21T06:44:23;100828.78;;;13.35;90.47
18749;BME280;9503;53.560;10.246;2024-02-21T06:46:49;100825.31;;;13.57;89.43
18749;BME280;9503;53.560;10.246;2024-02-21T06:49:16;100822.63;;;13.76;89.19
18749;BME280;9503;53.560;10.246;2024-02-21T06:51:42;100814.97;;;13.33;89.74
18749;BME280;9503;53.560;10.246;2024-02-21T06:54:09;100820.38;;;13.85;88.91
18749;BME280;9503;53.560;10.246;2024-02-21T06:56:36;100824.28;;;13.29;91.46
18749;BME280;9503;53.560;10.246;2024-02-21T06:59:05;100825.97;;;14.21;88.13
18749;BME280;9503;53.560;10.246;2024-02-21T07:01:31;100834.06;;;13.38;88.64
18749;BME280;9503;53.560;10.246;2024-02-21T07:03:58;100827.78;;;13.76;89.00
18749;BME280;9503;53.560;10.246;2024-02-21T07:06:25;100832.16;;;14.02;87.90
18749;BME280;9503;53.560;10.246;2024-02-21T07:08:51;100832.22;;;13.58;89.51
18749;BME280;9503;53.560;10.246;2024-02-21T07:11:18;100833.06;;;13.34;91.58
18749;BME280;9503;53.560;10.246;2024-02-21T07:13:45;100829.31;;;13.48;90.10
18749;BME280;9503;53.560;10.246;2024-02-21T07:16:13;100823.53;;;13.32;90.34
18749;BME280;9503;53.560;10.246;2024-02-21T07:18:39;100820.94;;;13.54;90.71
18749;BME280;9503;53.560;10.246;2024-02-21T07:21:06;100822.47;;;13.06;91.46
18749;BME280;9503;53.560;10.246;2024-02-21T07:23:32;100830.13;;;13.04;92.91
18749;BME280;9503;53.560;10.246;2024-02-21T07:25:59;100815.44;;;13.67;90.14
18749;BME280;9503;53.560;10.246;2024-02-21T07:28:26;100822.38;;;13.46;90.92
18749;BME280;9503;53.560;10.246;2024-02-21T07:30:52;100837.16;;;13.74;89.53
18749;BME280;9503;53.560;10.246;2024-02-21T07:33:20;100844.81;;;13.50;90.37
18749;BME280;9503;53.560;10.246;2024-02-21T07:35:47;100840.28;;;13.22;92.38
18749;BME280;9503;53.560;10.246;2024-02-21T07:38:13;100835.81;;;13.39;92.35
18749;BME280;9503;53.560;10.246;2024-02-21T07:40:40;100829.50;;;13.10;91.90
18749;BME280;9503;53.560;10.246;2024-02-21T07:43:07;100829.19;;;13.68;90.99
18749;BME280;9503;53.560;10.246;2024-02-21T07:45:33;100840.63;;;13.09;91.17
18749;BME280;9503;53.560;10.246;2024-02-21T07:48:00;100834.81;;;13.14;91.68
18749;BME280;9503;53.560;10.246;2024-02-21T07:50:28;100844.41;;;12.96;92.50
18749;BME280;9503;53.560;10.246;2024-02-21T07:52:55;100838.69;;;13.03;92.97
18749;BME280;9503;53.560;10.246;2024-02-21T07:55:22;100828.78;;;13.35;91.48
18749;BME280;9503;53.560;10.246;2024-02-21T07:57:48;100830.13;;;13.47;91.49
18749;BME280;9503;53.560;10.246;2024-02-21T08:00:16;100823.53;;;13.54;91.40
18749;BME280;9503;53.560;10.246;2024-02-21T08:02:45;100830.91;;;13.22;92.08
18749;BME280;9503;53.560;10.246;2024-02-21T08:05:12;100834.31;;;13.66;90.66
18749;BME280;9503;53.560;10.246;2024-02-21T08:07:40;100842.22;;;13.72;91.32
18749;BME280;9503;53.560;10.246;2024-02-21T08:10:07;100839.84;;;13.32;91.91
18749;BME280;9503;53.560;10.246;2024-02-21T08:12:34;100840.16;;;13.40;92.90
18749;BME280;9503;53.560;10.246;2024-02-21T08:15:01;100835.47;;;13.98;89.54
18749;BME280;9503;53.560;10.246;2024-02-21T08:17:28;100829.94;;;14.12;88.01
18749;BME280;9503;53.560;10.246;2024-02-21T08:19:56;100830.25;;;13.97;89.04
18749;BME280;9503;53.560;10.246;2024-02-21T08:22:22;100824.94;;;13.23;90.70
18749;BME280;9503;53.560;10.246;2024-02-21T08:24:50;100828.06;;;13.37;91.38
18749;BME280;9503;53.560;10.246;2024-02-21T08:27:17;100836.41;;;13.54;91.29
18749;BME280;9503;53.560;10.246;2024-02-21T08:29:44;100826.91;;;13.75;90.13
18749;BME280;9503;53.560;10.246;2024-02-21T08:32:10;100821.88;;;13.34;89.44
18749;BME280;9503;53.560;10.246;2024-02-21T08:34:37;100819.00;;;14.19;87.63
18749;BME280;9503;53.560;10.246;2024-02-21T08:37:04;100823.78;;;14.08;86.41
18749;BME280;9503;53.560;10.246;2024-02-21T08:39:30;100817.22;;;14.42;86.14
18749;BME280;9503;53.560;10.246;2024-02-21T08:41:58;100818.03;;;14.91;85.14
18749;BME280;9503;53.560;10.246;2024-02-21T08:44:27;100815.75;;;14.00;86.77
18749;BME280;9503;53.560;10.246;2024-02-21T08:46:54;100825.06;;;13.73;87.58
18749;BME280;9503;53.560;10.246;2024-02-21T08:49:21;100813.41;;;13.82;86.62
18749;BME280;9503;53.560;10.246;2024-02-21T08:51:47;100816.53;;;13.29;88.13
18749;BME280;9503;53.560;10.246;2024-02-21T08:54:14;100820.31;;;13.83;87.78
18749;BME280;9503;53.560;10.246;2024-02-21T08:56:40;100822.00;;;13.59;87.53
18749;BME280;9503;53.560;10.246;2024-02-21T08:59:08;100819.44;;;13.37;88.98
18749;BME280;9503;53.560;10.246;2024-02-21T09:01:34;100816.38;;;13.93;86.64
18749;BME280;9503;53.560;10.246;2024-02-21T09:04:00;100822.03;;;13.83;87.43
18749;BME280;9503;53.560;10.246;2024-02-21T09:06:28;100813.97;;;13.98;85.35
18749;BME280;9503;53.560;10.246;2024-02-21T09:08:56;100821.63;;;13.72;86.23
18749;BME280;9503;53.560;10.246;2024-02-21T09:11:22;100832.38;;;13.61;87.29
18749;BME280;9503;53.560;10.246;2024-02-21T09:13:49;100821.66;;;13.96;87.72
18749;BME280;9503;53.560;10.246;2024-02-21T09:16:17;100827.19;;;13.83;86.21
18749;BME280;9503;53.560;10.246;2024-02-21T09:18:44;100820.56;;;13.90;87.01
18749;BME280;9503;53.560;10.246;2024-02-21T09:21:12;100825.50;;;13.61;85.29
18749;BME280;9503;53.560;10.246;2024-02-21T09:23:38;100822.13;;;13.40;88.30
18749;BME280;9503;53.560;10.246;2024-02-21T09:26:05;100822.66;;;13.77;86.54
18749;BME280;9503;53.560;10.246;2024-02-21T09:28:31;100811.34;;;13.50;88.50
18749;BME280;9503;53.560;10.246;2024-02-21T09:30:59;100812.41;;;14.27;85.84
18749;BME280;9503;53.560;10.246;2024-02-21T09:33:28;100807.56;;;14.36;84.73
18749;BME280;9503;53.560;10.246;2024-02-21T09:35:55;100808.84;;;14.23;84.63
18749;BME280;9503;53.560;10.246;2024-02-21T09:38:22;100802.44;;;13.64;86.27
18749;BME280;9503;53.560;10.246;2024-02-21T09:40:54;100807.25;;;13.79;87.67
18749;BME280;9503;53.560;10.246;2024-02-21T09:43:24;100804.63;;;14.01;85.87
18749;BME280;9503;53.560;10.246;2024-02-21T09:45:52;100800.72;;;13.65;87.52
18749;BME280;9503;53.560;10.246;2024-02-21T09:48:42;100795.84;;;13.48;89.13
18749;BME280;9503;53.560;10.246;2024-02-21T09:51:14;100798.31;;;13.69;88.10
18749;BME280;9503;53.560;10.246;2024-02-21T09:53:42;100796.06;;;14.26;86.37
18749;BME280;9503;53.560;10.246;2024-02-21T09:56:09;100790.88;;;14.01;85.76
18749;BME280;9503;53.560;10.246;2024-02-21T09:58:37;100783.59;;;13.20;88.28
18749;BME280;9503;53.560;10.246;2024-02-21T10:01:04;100790.22;;;13.36;90.70
18749;BME280;9503;53.560;10.246;2024-02-21T10:03:33;100784.88;;;13.78;89.51
18749;BME280;9503;53.560;10.246;2024-02-21T10:06:00;100793.25;;;14.20;87.19
18749;BME280;9503;53.560;10.246;2024-02-21T10:08:27;100787.19;;;14.18;86.46
18749;BME280;9503;53.560;10.246;2024-02-21T10:10:54;100791.47;;;13.94;85.88
18749;BME280;9503;53.560;10.246;2024-02-21T10:13:25;100794.97;;;14.20;87.19
18749;BME280;9503;53.560;10.246;2024-02-21T10:16:06;100796.69;;;13.71;88.52
18749;BME280;9503;53.560;10.246;2024-02-21T10:18:34;100791.75;;;13.53;88.80
18749;BME280;9503;53.560;10.246;2024-02-21T10:21:02;100788.84;;;13.68;88.20
18749;BME280;9503;53.560;10.246;2024-02-21T10:23:29;100782.13;;;14.21;86.51
18749;BME280;9503;53.560;10.246;2024-02-21T10:26:04;100785.72;;;14.50;85.10
18749;BME280;9503;53.560;10.246;2024-02-21T10:28:31;100785.88;;;14.31;84.02
18749;BME280;9503;53.560;10.246;2024-02-21T10:30:58;100784.94;;;14.53;85.46
18749;BME280;9503;53.560;10.246;2024-02-21T10:33:24;100788.16;;;15.00;84.30
18749;BME280;9503;53.560;10.246;2024-02-21T10:35:54;100781.72;;;14.34;84.75
18749;BME280;9503;53.560;10.246;2024-02-21T10:38:21;100781.06;;;13.91;88.12
18749;BME280;9503;53.560;10.246;2024-02-21T10:40:47;100785.13;;;14.59;86.60
18749;BME280;9503;53.560;10.246;2024-02-21T10:43:18;100779.19;;;14.10;87.32
18749;BME280;9503;53.560;10.246;2024-02-21T10:45:47;100771.50;;;14.12;87.51
18749;BME280;9503;53.560;10.246;2024-02-21T10:48:21;100771.81;;;13.96;89.34
18749;BME280;9503;53.560;10.246;2024-02-21T10:50:57;100764.72;;;14.16;86.32
18749;BME280;9503;53.560;10.246;2024-02-21T10:53:29;100764.56;;;13.86;89.05
18749;BME280;9503;53.560;10.246;2024-02-21T10:56:07;100759.13;;;13.78;88.05
18749;BME280;9503;53.560;10.246;2024-02-21T10:58:37;100760.59;;;14.99;86.84
18749;BME280;9503;53.560;10.246;2024-02-21T11:01:05;100752.00;;;14.71;85.32
18749;BME280;9503;53.560;10.246;2024-02-21T11:03:33;100745.09;;;14.70;86.66
18749;BME280;9503;53.560;10.246;2024-02-21T11:06:02;100745.84;;;13.91;88.91
18749;BME280;9503;53.560;10.246;2024-02-21T11:08:30;100738.81;;;13.87;89.31
18749;BME280;9503;53.560;10.246;2024-02-21T11:10:57;100741.38;;;13.62;90.80
18749;BME280;9503;53.560;10.246;2024-02-21T11:13:30;100738.72;;;14.09;89.54
18749;BME280;9503;53.560;10.246;2024-02-21T11:16:06;100740.31;;;13.80;90.36
18749;BME280;9503;53.560;10.246;2024-02-21T11:18:34;100743.84;;;14.08;88.11
18749;BME280;9503;53.560;10.246;2024-02-21T11:21:02;100739.56;;;14.34;88.35
18749;BME280;9503;53.560;10.246;2024-02-21T11:23:30;100727.03;;;13.94;87.35
18749;BME280;9503;53.560;10.246;2024-02-21T11:26:04;100723.34;;;14.11;88.67
18749;BME280;9503;53.560;10.246;2024-02-21T11:28:32;100724.75;;;13.53;89.73
18749;BME280;9503;53.560;10.246;2024-02-21T11:31:07;100726.44;;;13.77;88.19
18749;BME280;9503;53.560;10.246;2024-02-21T11:33:34;100725.53;;;14.00;87.70
18749;BME280;9503;53.560;10.246;2024-02-21T11:36:02;100719.66;;;14.30;86.78
18749;BME280;9503;53.560;10.246;2024-02-21T11:38:30;100715.44;;;14.06;87.22
18749;BME280;9503;53.560;10.246;2024-02-21T11:40:56;100702.00;;;14.17;86.52
18749;BME280;9503;53.560;10.246;2024-02-21T11:43:23;100707.41;;;13.73;89.62
18749;BME280;9503;53.560;10.246;2024-02-21T11:45:50;100712.94;;;14.09;87.36
18749;BME280;9503;53.560;10.246;2024-02-21T11:48:17;100694.94;;;13.60;88.42
18749;BME280;9503;53.560;10.246;2024-02-21T11:50:52;100701.19;;;13.43;89.78
18749;BME280;9503;53.560;10.246;2024-02-21T11:53:21;100696.59;;;14.34;86.17
18749;BME280;9503;53.560;10.246;2024-02-21T11:55:48;100681.94;;;13.81;88.23
18749;BME280;9503;53.560;10.246;2024-02-21T11:58:15;100689.78;;;14.36;85.91
18749;BME280;9503;53.560;10.246;2024-02-21T12:00:42;100686.53;;;13.90;87.88
18749;BME280;9503;53.560;10.246;2024-02-21T12:03:08;100680.13;;;13.78;87.11
18749;BME280;9503;53.560;10.246;2024-02-21T12:05:35;100680.63;;;14.19;86.07
18749;BME280;9503;53.560;10.246;2024-02-21T12:08:02;100673.63;;;13.90;87.03
18749;BME280;9503;53.560;10.246;2024-02-21T12:10:31;100667.19;;;14.29;86.14
18749;BME280;9503;53.560;10.246;2024-02-21T12:13:05;100667.19;;;14.29;86.24
18749;BME280;9503;53.560;10.246;2024-02-21T12:15:33;100661.78;;;13.69;85.55
18749;BME280;9503;53.560;10.246;2024-02-21T12:17:59;100660.94;;;13.70;86.78
18749;BME280;9503;53.560;10.246;2024-02-21T12:20:26;100667.13;;;13.75;85.66
18749;BME280;9503;53.560;10.246;2024-02-21T12:22:53;100673.06;;;13.49;88.12
18749;BME280;9503;53.560;10.246;2024-02-21T12:25:22;100664.56;;;14.28;86.55
18749;BME280;9503;53.560;10.246;2024-02-21T12:27:52;100663.00;;;13.80;86.53
18749;BME280;9503;53.560;10.246;2024-02-21T12:30:19;100660.94;;;13.70;85.25
18749;BME280;9503;53.560;10.246;2024-02-21T12:32:46;100668.97;;;14.57;84.30
18749;BME280;9503;53.560;10.246;2024-02-21T12:35:13;100651.25;;;13.15;85.16
18749;BME280;9503;53.560;10.246;2024-02-21T12:37:40;100653.03;;;13.40;84.70
18749;BME280;9503;53.560;10.246;2024-02-21T12:40:08;100644.31;;;13.14;87.64
18749;BME280;9503;53.560;10.246;2024-02-21T12:42:36;100647.53;;;12.85;88.93
18749;BME280;9503;53.560;10.246;2024-02-21T12:45:05;100650.69;;;12.55;91.26
18749;BME280;9503;53.560;10.246;2024-02-21T12:47:31;100654.34;;;14.04;85.23
18749;BME280;9503;53.560;10.246;2024-02-21T12:49:58;100647.59;;;13.57;84.96
18749;BME280;9503;53.560;10.246;2024-02-21T12:52:24;100652.28;;;13.68;86.12